Time,TemperatureF,DewpointF,PressureIn,WindDirection,WindDirectionDegrees,WindSpeedMPH,WindSpeedGustMPH,Humidity,HourlyPrecipIn,Conditions,Clouds,dailyrainin,SoftwareType,DateUTC
2013-10-10 10:46:00,69.9,65.9,30.15,WNW,301,2.0,4.0,87,0.00,,,0.00,Wunderground v.1.15,2013-10-10 15:46:00,
2013-10-10 10:47:00,69.9,65.9,30.15,WNW,300,1.0,4.0,87,0.00,,,0.00,Wunderground v.1.15,2013-10-10 15:47:00,
2013-10-10 10:52:00,70.6,66.2,30.15,NW,308,2.0,3.0,86,0.00,,,0.00,Wunderground v.1.15,2013-10-10 15:52:00,
2013-10-10 10:56:00,70.9,65.8,30.15,West,277,1.0,5.0,84,0.00,,,0.00,Wunderground v.1.15,2013-10-10 15:56:00,
2013-10-10 11:01:00,71.5,66.1,30.15,NNW,342,4.0,4.0,83,0.00,,,0.00,Wunderground v.1.15,2013-10-10 16:01:00,
2013-10-10 11:06:00,71.3,65.5,30.15,NW,312,0.0,4.0,82,0.00,,,0.00,Wunderground v.1.15,2013-10-10 16:06:00,
2013-10-10 11:11:00,71.5,65.4,30.15,WSW,254,1.0,3.0,81,0.00,,,0.00,Wunderground v.1.15,2013-10-10 16:11:00,
2013-10-10 11:16:00,71.7,65.6,30.15,WSW,242,1.0,4.0,81,0.00,,,0.00,Wunderground v.1.15,2013-10-10 16:16:00,
2013-10-10 11:21:00,71.8,65.3,30.14,WNW,298,3.0,3.0,80,0.00,,,0.00,Wunderground v.1.15,2013-10-10 16:21:00,
2013-10-10 11:26:00,72.4,65.9,30.14,WNW,292,4.0,4.0,80,0.00,,,0.00,Wunderground v.1.15,2013-10-10 16:26:00,
2013-10-10 11:31:00,72.2,65.0,30.14,North,352,2.0,5.0,78,0.00,,,0.00,Wunderground v.1.15,2013-10-10 16:31:00,
2013-10-10 11:36:00,72.2,65.3,30.14,NW,315,1.0,5.0,79,0.00,,,0.00,Wunderground v.1.15,2013-10-10 16:36:00,
2013-10-10 11:41:00,72.6,65.7,30.14,WNW,302,1.0,3.0,79,0.00,,,0.00,Wunderground v.1.15,2013-10-10 16:41:00,
2013-10-10 11:46:00,73.0,65.4,30.14,NW,316,4.0,5.0,77,0.00,,,0.00,Wunderground v.1.15,2013-10-10 16:46:00,
2013-10-10 11:51:00,72.8,65.5,30.14,North,354,0.0,2.0,78,0.00,,,0.00,Wunderground v.1.15,2013-10-10 16:51:00,
2013-10-10 11:56:00,73.1,66.6,30.14,NW,309,3.0,3.0,80,0.00,,,0.00,Wunderground v.1.15,2013-10-10 16:56:00,
2013-10-10 12:01:00,72.9,66.4,30.14,NW,316,3.0,4.0,80,0.00,,,0.00,Wunderground v.1.15,2013-10-10 17:01:00,
2013-10-10 12:06:00,73.0,66.5,30.14,NW,318,3.0,4.0,80,0.00,,,0.00,Wunderground v.1.15,2013-10-10 17:06:00,
2013-10-10 12:11:00,72.9,66.0,30.14,NNW,328,3.0,6.0,79,0.00,,,0.00,Wunderground v.1.15,2013-10-10 17:11:00,
2013-10-10 12:16:00,72.8,65.9,30.13,NW,314,3.0,6.0,79,0.00,,,0.00,Wunderground v.1.15,2013-10-10 17:16:00,
2013-10-10 12:21:00,72.8,65.2,30.13,NW,310,0.0,2.0,77,0.00,,,0.00,Wunderground v.1.15,2013-10-10 17:21:00,
2013-10-10 12:26:00,73.2,65.6,30.13,West,267,0.0,2.0,77,0.00,,,0.00,Wunderground v.1.15,2013-10-10 17:26:00,
2013-10-10 12:31:00,74.0,65.6,30.13,North,349,1.0,4.0,75,0.00,,,0.00,Wunderground v.1.15,2013-10-10 17:31:00,
2013-10-10 12:36:00,74.5,66.4,30.13,NNE,30,0.0,4.0,76,0.00,,,0.00,Wunderground v.1.15,2013-10-10 17:36:00,
2013-10-10 12:41:00,75.0,66.1,30.12,North,360,1.0,2.0,74,0.00,,,0.00,Wunderground v.1.15,2013-10-10 17:41:00,
2013-10-10 12:46:00,75.0,66.5,30.12,NE,47,1.0,3.0,75,0.00,,,0.00,Wunderground v.1.15,2013-10-10 17:46:00,
2013-10-10 12:51:00,74.6,65.4,30.12,NE,48,1.0,2.0,73,0.00,,,0.00,Wunderground v.1.15,2013-10-10 17:51:00,
2013-10-10 12:57:00,74.7,65.9,30.11,NE,47,2.0,3.0,74,0.00,,,0.00,Wunderground v.1.15,2013-10-10 17:57:00,
2013-10-10 13:02:00,74.8,65.2,30.11,ESE,120,0.0,2.0,72,0.00,,,0.00,Wunderground v.1.15,2013-10-10 18:02:00,
2013-10-10 13:07:00,75.1,65.5,30.11,ESE,102,0.0,2.0,72,0.00,,,0.00,Wunderground v.1.15,2013-10-10 18:07:00,
2013-10-10 13:12:00,74.8,65.2,30.11,NNE,13,2.0,2.0,72,0.00,,,0.00,Wunderground v.1.15,2013-10-10 18:12:00,
2013-10-10 13:17:00,74.7,65.5,30.10,NW,309,0.0,2.0,73,0.00,,,0.00,Wunderground v.1.15,2013-10-10 18:17:00,
2013-10-10 13:22:00,75.4,65.3,30.10,SE,132,1.0,3.0,71,0.00,,,0.00,Wunderground v.1.15,2013-10-10 18:22:00,
2013-10-10 13:27:00,75.8,64.9,30.10,NW,315,3.0,3.0,69,0.00,,,0.00,Wunderground v.1.15,2013-10-10 18:27:00,
2013-10-10 13:32:00,75.2,64.3,30.10,WNW,290,1.0,2.0,69,0.00,,,0.00,Wunderground v.1.15,2013-10-10 18:32:00,
2013-10-10 13:37:00,74.9,64.5,30.10,West,270,2.0,2.0,70,0.00,,,0.00,Wunderground v.1.15,2013-10-10 18:37:00,
2013-10-10 13:42:00,74.9,64.5,30.10,WSW,245,1.0,2.0,70,0.00,,,0.00,Wunderground v.1.15,2013-10-10 18:42:00,
2013-10-10 13:47:00,74.8,64.8,30.10,NW,316,2.0,2.0,71,0.00,,,0.00,Wunderground v.1.15,2013-10-10 18:47:00,
2013-10-10 13:52:00,75.1,65.1,30.09,NW,315,1.0,1.0,71,0.00,,,0.00,Wunderground v.1.15,2013-10-10 18:52:00,
2013-10-10 13:57:00,75.8,65.7,30.09,SW,221,1.0,2.0,71,0.00,,,0.00,Wunderground v.1.15,2013-10-10 18:57:00,
2013-10-10 14:02:00,76.4,65.1,30.09,SE,138,0.0,3.0,68,0.00,,,0.00,Wunderground v.1.15,2013-10-10 19:02:00,
2013-10-10 14:07:00,77.0,64.8,30.08,SW,219,2.0,3.0,66,0.00,,,0.00,Wunderground v.1.15,2013-10-10 19:07:00,
2013-10-10 14:12:00,77.4,64.7,30.08,SE,138,2.0,3.0,65,0.00,,,0.00,Wunderground v.1.15,2013-10-10 19:12:00,
2013-10-10 14:17:00,78.1,64.5,30.08,SSW,211,1.0,3.0,63,0.00,,,0.00,Wunderground v.1.15,2013-10-10 19:17:00,
2013-10-10 14:22:00,78.0,62.5,30.07,ESE,120,3.0,3.0,59,0.00,,,0.00,Wunderground v.1.15,2013-10-10 19:22:00,
2013-10-10 14:27:00,77.8,63.3,30.07,NW,311,0.0,6.0,61,0.00,,,0.00,Wunderground v.1.15,2013-10-10 19:27:00,
2013-10-10 14:32:00,78.1,63.6,30.07,West,274,1.0,3.0,61,0.00,,,0.00,Wunderground v.1.15,2013-10-10 19:32:00,
2013-10-10 14:36:00,78.6,63.1,30.07,West,261,3.0,4.0,59,0.00,,,0.00,Wunderground v.1.15,2013-10-10 19:36:00,
2013-10-10 14:41:00,78.5,63.5,30.07,WSW,255,1.0,4.0,60,0.00,,,0.00,Wunderground v.1.15,2013-10-10 19:41:00,
2013-10-10 14:46:00,78.2,63.2,30.07,SW,226,1.0,4.0,60,0.00,,,0.00,Wunderground v.1.15,2013-10-10 19:46:00,
2013-10-10 14:51:00,77.6,63.5,30.07,West,262,1.0,4.0,62,0.00,,,0.00,Wunderground v.1.15,2013-10-10 19:51:00,
2013-10-10 14:56:00,77.0,64.3,30.06,West,266,0.0,4.0,65,0.00,,,0.00,Wunderground v.1.15,2013-10-10 19:56:00,
2013-10-10 15:01:00,77.3,64.2,30.06,WNW,302,3.0,4.0,64,0.00,,,0.00,Wunderground v.1.15,2013-10-10 20:01:00,
2013-10-10 15:06:00,76.9,64.7,30.06,NW,315,2.0,4.0,66,0.00,,,0.00,Wunderground v.1.15,2013-10-10 20:06:00,
2013-10-10 15:11:00,77.0,64.8,30.06,WNW,283,1.0,3.0,66,0.00,,,0.00,Wunderground v.1.15,2013-10-10 20:11:00,
2013-10-10 15:16:00,76.8,63.7,30.06,NW,310,3.0,4.0,64,0.00,,,0.00,Wunderground v.1.15,2013-10-10 20:16:00,
2013-10-10 15:21:00,76.5,63.9,30.06,WNW,295,3.0,3.0,65,0.00,,,0.00,Wunderground v.1.15,2013-10-10 20:21:00,
2013-10-10 15:26:00,76.1,63.9,30.06,WSW,248,0.0,3.0,66,0.00,,,0.00,Wunderground v.1.15,2013-10-10 20:26:00,
2013-10-10 15:31:00,75.7,64.0,30.05,WSW,253,1.0,2.0,67,0.00,,,0.00,Wunderground v.1.15,2013-10-10 20:31:00,
2013-10-10 15:36:00,75.1,64.2,30.05,WSW,253,0.0,2.0,69,0.00,,,0.00,Wunderground v.1.15,2013-10-10 20:36:00,
2013-10-10 15:41:00,74.7,64.3,30.05,WSW,253,0.0,0.0,70,0.00,,,0.00,Wunderground v.1.15,2013-10-10 20:41:00,
2013-10-10 15:46:00,74.3,64.3,30.05,WSW,253,0.0,1.0,71,0.00,,,0.00,Wunderground v.1.15,2013-10-10 20:46:00,
2013-10-10 15:51:00,74.1,65.3,30.05,WSW,254,0.0,0.0,74,0.00,,,0.00,Wunderground v.1.15,2013-10-10 20:51:00,
2013-10-10 15:56:00,73.7,65.7,30.05,WSW,253,0.0,0.0,76,0.00,,,0.00,Wunderground v.1.15,2013-10-10 20:56:00,
2013-10-10 16:01:00,73.1,65.8,30.05,WSW,253,0.0,0.0,78,0.00,,,0.00,Wunderground v.1.15,2013-10-10 21:01:00,
2013-10-10 16:06:00,73.1,65.8,30.05,WSW,254,0.0,0.0,78,0.00,,,0.00,Wunderground v.1.15,2013-10-10 21:06:00,
2013-10-10 16:11:00,73.7,67.1,30.05,WSW,254,0.0,0.0,80,0.00,,,0.00,Wunderground v.1.15,2013-10-10 21:11:00,
2013-10-10 16:16:00,74.5,64.9,30.05,WSW,238,0.0,1.0,72,0.00,,,0.00,Wunderground v.1.15,2013-10-10 21:16:00,
2013-10-10 16:21:00,75.2,65.1,30.04,WSW,238,0.0,0.0,71,0.00,,,0.00,Wunderground v.1.15,2013-10-10 21:21:00,
2013-10-10 16:26:00,75.7,65.2,30.04,SW,222,0.0,1.0,70,0.00,,,0.00,Wunderground v.1.15,2013-10-10 21:26:00,
2013-10-10 16:31:00,75.7,65.2,30.04,SW,233,1.0,1.0,70,0.00,,,0.00,Wunderground v.1.15,2013-10-10 21:31:00,
2013-10-10 16:36:00,75.5,65.4,30.04,SW,231,1.0,1.0,71,0.00,,,0.00,Wunderground v.1.15,2013-10-10 21:36:00,
2013-10-10 16:41:00,75.1,65.1,30.04,WSW,252,0.0,0.0,71,0.00,,,0.00,Wunderground v.1.15,2013-10-10 21:41:00,
2013-10-10 16:46:00,74.9,66.1,30.04,WSW,251,0.0,1.0,74,0.00,,,0.00,Wunderground v.1.15,2013-10-10 21:46:00,
2013-10-10 16:51:00,74.7,65.5,30.04,WSW,252,0.0,1.0,73,0.00,,,0.00,Wunderground v.1.15,2013-10-10 21:51:00,
2013-10-10 16:56:00,74.6,66.5,30.04,WSW,252,0.0,1.0,76,0.00,,,0.00,Wunderground v.1.15,2013-10-10 21:56:00,
2013-10-10 17:01:00,74.6,66.9,30.04,WSW,252,0.0,0.0,77,0.00,,,0.00,Wunderground v.1.15,2013-10-10 22:01:00,
2013-10-10 17:06:00,74.6,65.8,30.04,WSW,252,0.0,1.0,74,0.00,,,0.00,Wunderground v.1.15,2013-10-10 22:06:00,
2013-10-10 17:11:00,75.3,66.4,30.04,WSW,252,0.0,0.0,74,0.00,,,0.00,Wunderground v.1.15,2013-10-10 22:11:00,
2013-10-10 17:16:00,75.9,66.2,30.04,WSW,252,0.0,1.0,72,0.00,,,0.00,Wunderground v.1.15,2013-10-10 22:16:00,
2013-10-10 17:21:00,76.4,65.5,30.04,WSW,255,0.0,1.0,69,0.00,,,0.00,Wunderground v.1.15,2013-10-10 22:21:00,
2013-10-10 17:26:00,76.6,65.2,30.04,WSW,256,1.0,1.0,68,0.00,,,0.00,Wunderground v.1.15,2013-10-10 22:26:00,
2013-10-10 17:31:00,76.7,64.9,30.04,West,269,0.0,0.0,67,0.00,,,0.00,Wunderground v.1.15,2013-10-10 22:31:00,
2013-10-10 17:36:00,77.4,66.0,30.03,West,267,0.0,0.0,68,0.00,,,0.00,Wunderground v.1.15,2013-10-10 22:36:00,
2013-10-10 17:41:00,78.4,66.5,30.03,West,267,0.0,0.0,67,0.00,,,0.00,Wunderground v.1.15,2013-10-10 22:41:00,
2013-10-10 17:46:00,78.8,66.5,30.03,West,267,0.0,0.0,66,0.00,,,0.00,Wunderground v.1.15,2013-10-10 22:46:00,
2013-10-10 17:50:00,78.1,67.1,30.03,West,267,0.0,0.0,69,0.00,,,0.00,Wunderground v.1.15,2013-10-10 22:50:00,
2013-10-10 17:55:00,78.3,67.3,30.03,West,267,0.0,0.0,69,0.00,,,0.00,Wunderground v.1.15,2013-10-10 22:55:00,
2013-10-10 18:00:00,77.1,66.6,30.03,West,267,0.0,0.0,70,0.00,,,0.00,Wunderground v.1.15,2013-10-10 23:00:00,
2013-10-10 18:05:00,75.3,66.0,30.03,West,266,0.0,0.0,73,0.00,,,0.00,Wunderground v.1.15,2013-10-10 23:05:00,
2013-10-10 18:10:00,74.0,66.3,30.03,WSW,240,0.0,0.0,77,0.00,,,0.00,Wunderground v.1.15,2013-10-10 23:10:00,
2013-10-10 18:15:00,72.8,65.9,30.03,SW,231,0.0,0.0,79,0.00,,,0.00,Wunderground v.1.15,2013-10-10 23:15:00,
2013-10-10 18:20:00,71.8,65.3,30.03,SW,231,0.0,0.0,80,0.00,,,0.00,Wunderground v.1.15,2013-10-10 23:20:00,
2013-10-10 18:25:00,71.0,64.9,30.03,SW,231,0.0,0.0,81,0.00,,,0.00,Wunderground v.1.15,2013-10-10 23:25:00,
2013-10-10 18:30:00,70.2,64.8,30.03,SSE,152,0.0,0.0,83,0.00,,,0.00,Wunderground v.1.15,2013-10-10 23:30:00,
2013-10-10 18:35:00,69.9,64.5,30.03,ESE,103,1.0,2.0,83,0.00,,,0.00,Wunderground v.1.15,2013-10-10 23:35:00,
2013-10-10 18:40:00,69.6,64.5,30.03,SE,124,0.0,1.0,84,0.00,,,0.00,Wunderground v.1.15,2013-10-10 23:40:00,
2013-10-10 18:45:00,69.3,64.3,30.02,South,184,1.0,1.0,84,0.00,,,0.00,Wunderground v.1.15,2013-10-10 23:45:00,
2013-10-10 18:50:00,69.0,64.3,30.02,South,184,0.0,0.0,85,0.00,,,0.00,Wunderground v.1.15,2013-10-10 23:50:00,
2013-10-10 18:55:00,68.5,64.1,30.02,South,184,0.0,0.0,86,0.00,,,0.00,Wunderground v.1.15,2013-10-10 23:55:00,
2013-10-10 19:00:00,67.9,63.9,30.02,South,184,0.0,0.0,87,0.00,,,0.00,Wunderground v.1.15,2013-10-11 00:00:00,
2013-10-10 19:05:00,67.3,63.3,30.02,South,184,0.0,0.0,87,0.00,,,0.00,Wunderground v.1.15,2013-10-11 00:05:00,
2013-10-10 19:10:00,66.8,63.5,30.02,South,184,0.0,0.0,89,0.00,,,0.00,Wunderground v.1.15,2013-10-11 00:10:00,
2013-10-10 19:15:00,66.3,63.3,30.02,South,184,0.0,0.0,90,0.00,,,0.00,Wunderground v.1.15,2013-10-11 00:15:00,
2013-10-10 19:20:00,65.9,63.2,30.02,South,185,0.0,0.0,91,0.00,,,0.00,Wunderground v.1.15,2013-10-11 00:20:00,
2013-10-10 19:25:00,65.7,63.3,30.02,South,184,0.0,0.0,92,0.00,,,0.00,Wunderground v.1.15,2013-10-11 00:25:00,
2013-10-10 19:30:00,65.4,63.0,30.02,South,184,0.0,0.0,92,0.00,,,0.00,Wunderground v.1.15,2013-10-11 00:30:00,
2013-10-10 19:35:00,65.0,62.6,30.03,South,184,0.0,0.0,92,0.00,,,0.00,Wunderground v.1.15,2013-10-11 00:35:00,
2013-10-10 19:40:00,64.6,62.2,30.03,South,185,0.0,0.0,92,0.00,,,0.00,Wunderground v.1.15,2013-10-11 00:40:00,
2013-10-10 19:45:00,64.5,62.7,30.03,South,184,0.0,0.0,94,0.00,,,0.00,Wunderground v.1.15,2013-10-11 00:45:00,
2013-10-10 19:50:00,64.3,62.5,30.03,South,184,0.0,0.0,94,0.00,,,0.00,Wunderground v.1.15,2013-10-11 00:50:00,
2013-10-10 19:55:00,63.9,62.1,30.03,South,184,0.0,0.0,94,0.00,,,0.00,Wunderground v.1.15,2013-10-11 00:55:00,
2013-10-10 20:00:00,63.6,61.8,30.03,South,184,0.0,0.0,94,0.00,,,0.00,Wunderground v.1.15,2013-10-11 01:00:00,
2013-10-10 20:05:00,63.4,61.6,30.03,South,184,0.0,0.0,94,0.00,,,0.00,Wunderground v.1.15,2013-10-11 01:05:00,
2013-10-10 20:10:00,63.5,62.0,30.03,South,184,0.0,0.0,95,0.00,,,0.00,Wunderground v.1.15,2013-10-11 01:10:00,
2013-10-10 20:15:00,63.4,61.9,30.03,South,184,0.0,0.0,95,0.00,,,0.00,Wunderground v.1.15,2013-10-11 01:15:00,
2013-10-10 20:20:00,63.3,62.1,30.03,South,184,0.0,0.0,96,0.00,,,0.00,Wunderground v.1.15,2013-10-11 01:20:00,
2013-10-10 20:25:00,63.2,62.0,30.03,South,184,0.0,0.0,96,0.00,,,0.00,Wunderground v.1.15,2013-10-11 01:25:00,
2013-10-10 20:30:00,63.2,62.0,30.03,South,184,0.0,0.0,96,0.00,,,0.00,Wunderground v.1.15,2013-10-11 01:30:00,
2013-10-10 20:35:00,63.0,61.8,30.03,South,184,0.0,0.0,96,0.00,,,0.00,Wunderground v.1.15,2013-10-11 01:35:00,
2013-10-10 20:40:00,62.9,61.7,30.03,South,184,0.0,0.0,96,0.00,,,0.00,Wunderground v.1.15,2013-10-11 01:40:00,
2013-10-10 20:45:00,62.6,61.4,30.03,South,184,0.0,0.0,96,0.00,,,0.00,Wunderground v.1.15,2013-10-11 01:45:00,
2013-10-10 20:50:00,62.4,61.2,30.03,South,184,0.0,0.0,96,0.00,,,0.00,Wunderground v.1.15,2013-10-11 01:50:00,
2013-10-10 20:55:00,62.4,61.2,30.03,South,184,0.0,0.0,96,0.00,,,0.00,Wunderground v.1.15,2013-10-11 01:55:00,
2013-10-10 21:00:00,62.2,61.0,30.03,South,184,0.0,0.0,96,0.00,,,0.00,Wunderground v.1.15,2013-10-11 02:00:00,
2013-10-10 21:05:00,62.0,60.8,30.03,South,184,0.0,0.0,96,0.00,,,0.00,Wunderground v.1.15,2013-10-11 02:05:00,
2013-10-10 21:10:00,62.2,61.3,30.03,South,184,0.0,0.0,97,0.00,,,0.00,Wunderground v.1.15,2013-10-11 02:10:00,
2013-10-10 21:15:00,62.2,61.3,30.03,South,184,0.0,0.0,97,0.00,,,0.00,Wunderground v.1.15,2013-10-11 02:15:00,
2013-10-10 21:20:00,62.0,60.8,30.03,South,184,0.0,0.0,96,0.00,,,0.00,Wunderground v.1.15,2013-10-11 02:20:00,
2013-10-10 21:25:00,61.9,61.0,30.03,South,184,0.0,0.0,97,0.00,,,0.00,Wunderground v.1.15,2013-10-11 02:25:00,
2013-10-10 21:30:00,61.9,61.0,30.03,South,184,0.0,0.0,97,0.00,,,0.00,Wunderground v.1.15,2013-10-11 02:30:00,
2013-10-10 21:35:00,61.7,60.8,30.03,South,184,0.0,0.0,97,0.00,,,0.00,Wunderground v.1.15,2013-10-11 02:35:00,
2013-10-10 21:40:00,61.6,60.7,30.03,South,184,0.0,0.0,97,0.00,,,0.00,Wunderground v.1.15,2013-10-11 02:40:00,
2013-10-10 21:45:00,61.8,60.9,30.03,South,184,0.0,0.0,97,0.00,,,0.00,Wunderground v.1.15,2013-10-11 02:45:00,
2013-10-10 21:50:00,61.7,60.8,30.03,South,184,0.0,0.0,97,0.00,,,0.00,Wunderground v.1.15,2013-10-11 02:50:00,
2013-10-10 21:55:00,61.6,60.7,30.03,South,184,0.0,0.0,97,0.00,,,0.00,Wunderground v.1.15,2013-10-11 02:55:00,
2013-10-10 22:00:00,61.8,61.2,30.03,SE,132,1.0,1.0,98,0.00,,,0.00,Wunderground v.1.15,2013-10-11 03:00:00,
2013-10-10 22:05:00,62.0,61.4,30.03,SE,132,0.0,1.0,98,0.00,,,0.00,Wunderground v.1.15,2013-10-11 03:05:00,
2013-10-10 22:10:00,61.8,60.9,30.03,SE,132,0.0,0.0,97,0.00,,,0.00,Wunderground v.1.15,2013-10-11 03:10:00,
2013-10-10 22:15:00,61.7,60.8,30.03,SE,132,0.0,0.0,97,0.00,,,0.00,Wunderground v.1.15,2013-10-11 03:15:00,
2013-10-10 22:20:00,61.4,60.5,30.03,SE,132,0.0,0.0,97,0.00,,,0.00,Wunderground v.1.15,2013-10-11 03:20:00,
2013-10-10 22:25:00,61.3,60.4,30.03,SE,132,0.0,0.0,97,0.00,,,0.00,Wunderground v.1.15,2013-10-11 03:25:00,
2013-10-10 22:30:00,61.1,60.2,30.03,SE,133,0.0,0.0,97,0.00,,,0.00,Wunderground v.1.15,2013-10-11 03:30:00,
2013-10-10 22:35:00,60.9,60.0,30.03,SE,133,0.0,0.0,97,0.00,,,0.00,Wunderground v.1.15,2013-10-11 03:35:00,
2013-10-10 22:40:00,60.6,59.7,30.03,SE,133,0.0,0.0,97,0.00,,,0.00,Wunderground v.1.15,2013-10-11 03:40:00,
2013-10-10 22:45:00,60.5,59.6,30.02,SE,132,0.0,0.0,97,0.00,,,0.00,Wunderground v.1.15,2013-10-11 03:45:00,
2013-10-10 22:50:00,60.2,59.3,30.02,SE,133,0.0,0.0,97,0.00,,,0.00,Wunderground v.1.15,2013-10-11 03:50:00,
2013-10-10 22:55:00,59.9,59.0,30.02,SE,132,0.0,0.0,97,0.00,,,0.00,Wunderground v.1.15,2013-10-11 03:55:00,
2013-10-10 23:00:00,59.6,58.7,30.02,SE,132,0.0,0.0,97,0.00,,,0.00,Wunderground v.1.15,2013-10-11 04:00:00,
2013-10-10 23:01:00,59.6,58.7,30.02,SE,132,0.0,0.0,97,0.00,,,0.00,Wunderground v.1.15,2013-10-11 04:01:00,
2013-10-10 23:06:00,59.7,59.1,30.02,SE,132,0.0,0.0,98,0.00,,,0.00,Wunderground v.1.15,2013-10-11 04:06:00,
2013-10-10 23:11:00,59.7,58.8,30.02,SE,132,0.0,0.0,97,0.00,,,0.00,Wunderground v.1.15,2013-10-11 04:11:00,
2013-10-10 23:16:00,59.5,58.6,30.02,SE,132,0.0,0.0,97,0.00,,,0.00,Wunderground v.1.15,2013-10-11 04:16:00,
2013-10-10 23:21:00,59.3,58.4,30.02,SE,132,0.0,0.0,97,0.00,,,0.00,Wunderground v.1.15,2013-10-11 04:21:00,
2013-10-10 23:26:00,59.2,58.3,30.02,SE,132,0.0,0.0,97,0.00,,,0.00,Wunderground v.1.15,2013-10-11 04:26:00,
2013-10-10 23:31:00,59.4,58.8,30.02,SE,132,0.0,0.0,98,0.00,,,0.00,Wunderground v.1.15,2013-10-11 04:31:00,
2013-10-10 23:36:00,59.5,58.9,30.02,SE,132,0.0,0.0,98,0.00,,,0.00,Wunderground v.1.15,2013-10-11 04:36:00,
2013-10-10 23:41:00,59.3,58.4,30.02,SE,132,0.0,0.0,97,0.00,,,0.00,Wunderground v.1.15,2013-10-11 04:41:00,
2013-10-10 23:46:00,59.3,58.7,30.02,SE,132,0.0,0.0,98,0.00,,,0.00,Wunderground v.1.15,2013-10-11 04:46:00,
2013-10-10 23:51:00,59.2,58.6,30.02,SE,132,0.0,0.0,98,0.00,,,0.00,Wunderground v.1.15,2013-10-11 04:51:00,
2013-10-10 23:56:00,59.1,58.2,30.02,ESE,116,1.0,1.0,97,0.00,,,0.00,Wunderground v.1.15,2013-10-11 04:56:00,